createdAt,value
2018-11-20T00:02:11.466Z,9.00
2018-11-20T00:05:21.560Z,9.60
2018-11-20T00:08:10.001Z,9.58
2018-11-20T00:11:17.387Z,9.45
2018-11-20T00:14:25.593Z,8.20
2018-11-20T00:17:38.671Z,9.85
2018-11-20T00:20:46.101Z,10.78
2018-11-20T00:23:53.750Z,10.90
2018-11-20T00:27:01.201Z,10.15
2018-11-20T00:30:11.215Z,11.30
2018-11-20T00:33:11.090Z,9.63
2018-11-20T00:36:11.417Z,12.60
2018-11-20T00:38:59.809Z,10.35
2018-11-20T00:41:48.248Z,11.55
2018-11-20T00:44:55.682Z,12.15
2018-11-20T00:48:03.061Z,10.82
2018-11-20T00:51:10.491Z,11.83
2018-11-20T00:54:17.889Z,11.08
2018-11-20T00:57:06.409Z,13.58
2018-11-20T01:00:14.022Z,9.50
2018-11-20T01:03:23.966Z,12.15
2018-11-20T01:06:31.393Z,9.78
2018-11-20T01:09:39.224Z,11.43
2018-11-20T01:12:39.691Z,12.82
2018-11-20T01:15:47.348Z,9.93
2018-11-20T01:18:54.161Z,10.75
2018-11-20T01:22:01.091Z,10.00
2018-11-20T01:25:08.518Z,7.65
2018-11-20T01:28:15.965Z,10.48
2018-11-20T01:31:23.355Z,9.35
2018-11-20T01:34:30.879Z,11.35
2018-11-20T01:37:38.279Z,11.73
2018-11-20T01:40:45.714Z,10.88
2018-11-20T01:43:53.142Z,11.45
2018-11-20T01:46:41.603Z,8.20
2018-11-20T01:49:49.014Z,9.15
2018-11-20T01:52:56.407Z,9.55
2018-11-20T01:55:45.048Z,11.25
2018-11-20T01:58:52.671Z,11.40
2018-11-20T02:01:41.130Z,11.18
2018-11-20T02:04:29.576Z,8.58
2018-11-20T02:07:37.675Z,10.78
2018-11-20T02:10:45.158Z,10.70
2018-11-20T02:14:02.396Z,10.65
2018-11-20T02:16:56.858Z,9.70
2018-11-20T02:20:04.213Z,9.55
2018-11-20T02:23:11.711Z,8.65
2018-11-20T02:26:19.068Z,10.28
2018-11-20T02:29:26.433Z,10.25
2018-11-20T02:32:33.993Z,11.15
2018-11-20T02:35:34.933Z,9.10
2018-11-20T02:38:42.369Z,9.08
2018-11-20T02:41:30.808Z,11.50
2018-11-20T02:44:19.372Z,11.00
2018-11-20T02:47:07.856Z,10.80
2018-11-20T02:49:56.298Z,11.00
2018-11-20T02:58:50.832Z,8.75
2018-11-20T03:01:58.225Z,8.80
2018-11-20T03:04:46.659Z,10.98
2018-11-20T03:07:54.965Z,9.45
2018-11-20T03:11:02.279Z,10.55
2018-11-20T03:14:05.280Z,10.03
2018-11-20T03:17:10.818Z,10.10
2018-11-20T03:20:10.541Z,7.65
2018-11-20T03:23:05.733Z,9.98
2018-11-20T03:26:05.494Z,9.48
2018-11-20T03:29:08.575Z,12.13
2018-11-20T03:32:06.714Z,11.12
2018-11-20T03:35:06.446Z,10.43
2018-11-20T03:38:06.032Z,10.23
2018-11-20T03:41:05.762Z,9.30
2018-11-20T03:44:08.525Z,11.28
2018-11-20T03:47:14.639Z,10.72
2018-11-20T03:49:55.784Z,12.60
2018-11-20T03:52:58.323Z,9.68
2018-11-20T03:55:58.066Z,10.55
2018-11-20T03:59:04.099Z,10.55
2018-11-20T04:02:05.338Z,12.23
2018-11-20T04:05:05.168Z,11.68
2018-11-20T04:08:04.833Z,8.80
2018-11-20T04:11:01.327Z,11.90
2018-11-20T04:14:03.644Z,11.50
2018-11-20T04:17:03.565Z,11.10
2018-11-20T04:19:53.594Z,9.00
2018-11-20T04:22:53.964Z,9.98
2018-11-20T04:25:36.195Z,9.25
2018-11-20T04:28:31.574Z,10.90
2018-11-20T04:31:37.691Z,9.98
2018-11-20T04:34:40.315Z,11.33
2018-11-20T04:37:40.263Z,10.90
2018-11-20T04:40:40.081Z,11.55
2018-11-20T04:43:39.803Z,9.00
2018-11-20T04:46:39.678Z,8.38
2018-11-20T04:49:20.585Z,11.85
2018-11-20T04:52:20.913Z,11.90
2018-11-20T04:55:20.807Z,11.28
2018-11-20T04:58:20.657Z,11.43
2018-11-20T05:01:20.706Z,10.28
2018-11-20T05:04:12.570Z,12.03
2018-11-20T05:07:15.359Z,11.38
2018-11-20T05:10:14.870Z,11.35
2018-11-20T05:13:14.668Z,12.50
2018-11-20T05:16:14.231Z,12.63
2018-11-20T05:19:09.455Z,12.65
2018-11-20T05:22:08.953Z,13.50
2018-11-20T05:25:08.799Z,14.00
2018-11-20T05:34:18.035Z,11.85
2018-11-20T05:36:58.900Z,14.58
2018-11-20T05:39:47.364Z,14.33
2018-11-20T05:42:54.821Z,15.45
2018-11-20T05:46:02.387Z,14.58
2018-11-20T05:49:09.821Z,15.88
2018-11-20T05:52:17.419Z,15.13
2018-11-20T05:55:25.084Z,14.10
2018-11-20T05:58:32.528Z,17.48
2018-11-20T06:01:39.948Z,12.05
2018-11-20T06:04:47.377Z,15.48
2018-11-20T06:07:55.151Z,16.25
2018-11-20T06:10:44.685Z,18.90
2018-11-20T06:13:29.794Z,15.90
2018-11-20T06:16:18.368Z,16.50
2018-11-20T06:19:07.929Z,16.85
2018-11-20T06:21:56.463Z,14.90
2018-11-20T06:24:45.145Z,16.30
2018-11-20T06:27:50.227Z,19.98
2018-11-20T06:30:41.626Z,15.25
2018-11-20T06:33:30.289Z,20.57
2018-11-20T06:36:37.724Z,18.25
2018-11-20T06:39:45.272Z,17.80
2018-11-20T06:42:52.899Z,15.53
2018-11-20T06:46:00.357Z,19.25
2018-11-20T06:49:08.188Z,18.87
2018-11-20T06:55:37.133Z,17.07
2018-11-20T06:58:44.604Z,19.92
2018-11-20T07:01:52.026Z,18.35
2018-11-20T07:04:59.468Z,18.92
2018-11-20T07:08:07.034Z,16.87
2018-11-20T07:11:14.639Z,15.75
2018-11-20T07:14:25.828Z,13.25
2018-11-20T07:17:35.107Z,19.42
2018-11-20T07:20:42.722Z,17.37
2018-11-20T07:23:43.859Z,15.70
2018-11-20T07:26:51.281Z,16.02
2018-11-20T07:29:58.692Z,18.35
2018-11-20T07:33:06.241Z,16.23
2018-11-20T07:36:13.761Z,16.20
2018-11-20T07:39:21.117Z,16.05
2018-11-20T07:42:28.514Z,17.25
2018-11-20T07:45:36.475Z,14.73
2018-11-20T07:48:44.190Z,17.15
2018-11-20T07:51:51.840Z,16.20
2018-11-20T07:54:59.287Z,17.50
2018-11-20T07:58:06.725Z,13.15
2018-11-20T08:01:14.326Z,17.00
2018-11-20T08:04:22.479Z,16.45
2018-11-20T08:07:29.393Z,14.20
2018-11-20T08:10:37.179Z,19.57
2018-11-20T08:13:44.672Z,16.87
2018-11-20T08:16:51.295Z,17.35
2018-11-20T08:19:58.749Z,18.25
2018-11-20T08:23:06.145Z,19.42
2018-11-20T08:26:14.003Z,17.30
2018-11-20T08:29:02.480Z,18.48
2018-11-20T08:32:09.895Z,19.62
2018-11-20T08:35:17.796Z,18.42
2018-11-20T08:38:06.548Z,15.65
2018-11-20T08:47:06.368Z,18.17
2018-11-20T08:49:55.102Z,17.15
2018-11-20T08:53:02.865Z,18.37
2018-11-20T08:55:51.666Z,18.05
2018-11-20T08:58:59.985Z,18.42
2018-11-20T09:01:47.707Z,16.00
2018-11-20T09:04:58.112Z,15.60
2018-11-20T09:10:42.326Z,15.88
2018-11-20T09:13:30.951Z,19.07
2018-11-20T09:16:19.452Z,19.20
2018-11-20T09:19:07.967Z,17.92
2018-11-20T09:25:12.102Z,16.55
2018-11-20T09:28:21.418Z,15.08
2018-11-20T09:31:29.027Z,16.20
2018-11-20T09:40:30.570Z,16.80
2018-11-20T09:43:22.134Z,16.27
2018-11-20T09:46:12.749Z,17.23
2018-11-20T09:49:01.341Z,14.05
2018-11-20T09:51:50.772Z,16.93
2018-11-20T09:54:44.569Z,17.50
2018-11-20T09:57:26.886Z,16.85
2018-11-20T10:00:14.025Z,10.75
2018-11-20T10:05:53.988Z,16.73
2018-11-20T10:08:33.932Z,18.82
2018-11-20T10:11:22.523Z,17.70
2018-11-20T10:20:16.617Z,15.80
2018-11-20T10:23:05.120Z,15.75
2018-11-20T10:25:53.693Z,12.37
2018-11-20T10:29:02.414Z,16.62
2018-11-20T10:31:51.854Z,15.40
2018-11-20T10:34:40.390Z,16.70
2018-11-20T10:37:47.867Z,16.97
2018-11-20T10:40:58.763Z,15.43
2018-11-20T10:43:50.794Z,15.35
2018-11-20T10:46:39.295Z,14.28
2018-11-20T10:52:22.391Z,15.85
2018-11-20T10:55:29.895Z,12.35
2018-11-20T11:01:34.206Z,14.87
2018-11-20T11:04:22.796Z,16.27
2018-11-20T11:10:45.602Z,16.93
2018-11-20T11:13:53.899Z,16.67
2018-11-20T11:17:02.132Z,16.80
2018-11-20T11:20:08.632Z,18.50
2018-11-20T11:23:05.251Z,16.90
2018-11-20T11:26:12.724Z,16.00
2018-11-20T11:29:20.068Z,12.55
2018-11-20T11:32:27.524Z,17.25
2018-11-20T11:35:34.888Z,17.75
2018-11-20T11:38:42.289Z,16.97
2018-11-20T11:41:49.714Z,14.13
2018-11-20T11:44:57.186Z,15.05
2018-11-20T11:48:23.535Z,15.58
2018-11-20T11:51:23.727Z,17.35
2018-11-20T11:54:09.852Z,17.40
2018-11-20T11:57:17.457Z,16.97
2018-11-20T12:00:26.575Z,18.90
2018-11-20T12:03:34.096Z,18.10
2018-11-20T12:06:41.535Z,16.37
2018-11-20T12:09:48.966Z,14.83
2018-11-20T12:12:57.755Z,16.52
2018-11-20T12:16:05.348Z,16.75
2018-11-20T12:19:12.811Z,14.95
2018-11-20T12:22:20.300Z,17.85
2018-11-20T12:25:09.884Z,11.48
2018-11-20T12:27:58.883Z,18.23
2018-11-20T12:31:06.512Z,17.80
2018-11-20T12:33:48.484Z,18.32
2018-11-20T12:36:56.565Z,15.72
2018-11-20T12:39:58.436Z,18.25
2018-11-20T12:43:08.603Z,17.30
2018-11-20T12:49:09.984Z,15.20
2018-11-20T12:52:18.515Z,17.70
2018-11-20T12:55:27.323Z,16.93
2018-11-20T12:58:34.779Z,17.82
2018-11-20T13:01:42.198Z,15.50
2018-11-20T13:04:30.952Z,15.58
2018-11-20T13:07:40.771Z,15.95
2018-11-20T13:10:48.580Z,17.00
2018-11-20T13:13:56.576Z,17.95
2018-11-20T13:16:44.017Z,13.55
2018-11-20T13:19:33.334Z,16.87
2018-11-20T13:22:22.184Z,18.32
2018-11-20T13:25:29.824Z,18.85
2018-11-20T13:28:18.424Z,15.25
2018-11-20T13:31:07.022Z,16.85
2018-11-20T13:34:20.811Z,17.90
2018-11-20T13:37:04.226Z,14.10
2018-11-20T13:40:12.128Z,18.85
2018-11-20T13:43:02.764Z,19.70
2018-11-20T13:49:02.812Z,17.32
2018-11-20T13:52:11.992Z,16.97
2018-11-20T13:55:19.472Z,15.72
2018-11-20T13:58:10.497Z,16.87
2018-11-20T14:00:56.959Z,18.25
2018-11-20T14:03:45.511Z,16.30
2018-11-20T14:06:53.033Z,17.60
2018-11-20T14:10:01.012Z,15.65
2018-11-20T14:13:08.693Z,15.45
2018-11-20T14:16:16.218Z,17.37
2018-11-20T14:19:24.689Z,16.05
2018-11-20T14:22:32.213Z,17.60
2018-11-20T14:25:42.278Z,17.07
2018-11-20T14:28:50.601Z,17.62
2018-11-20T14:31:58.100Z,19.52
2018-11-20T14:41:15.547Z,20.40
2018-11-20T14:44:04.420Z,21.45
2018-11-20T14:46:52.907Z,21.33
2018-11-20T14:50:01.419Z,20.27
2018-11-20T14:52:50.282Z,21.50
2018-11-20T14:55:39.119Z,22.32
2018-11-20T14:58:17.636Z,22.55
2018-11-20T15:01:26.135Z,21.45
2018-11-20T15:04:33.647Z,20.80
2018-11-20T15:07:22.248Z,20.62
2018-11-20T15:10:19.590Z,22.37
2018-11-20T15:13:26.899Z,25.75
2018-11-20T15:16:33.775Z,21.27
2018-11-20T15:19:42.767Z,20.08
2018-11-20T15:25:41.345Z,22.15
2018-11-20T15:28:48.842Z,24.07
2018-11-20T15:31:37.410Z,21.95
2018-11-20T15:34:44.850Z,22.35
2018-11-20T15:37:52.389Z,23.50
2018-11-20T15:41:00.566Z,20.95
2018-11-20T15:43:49.482Z,22.10
2018-11-20T15:46:57.333Z,22.65
2018-11-20T15:50:07.582Z,23.10
2018-11-20T15:52:57.008Z,22.17
2018-11-20T15:56:03.558Z,18.50
2018-11-20T15:59:13.451Z,19.65
2018-11-20T16:02:02.117Z,19.17
2018-11-20T16:05:10.124Z,17.77
2018-11-20T16:08:18.968Z,19.85
2018-11-20T16:11:26.669Z,18.90
2018-11-20T16:14:36.596Z,18.98
2018-11-20T16:17:45.202Z,17.80
2018-11-20T16:20:53.113Z,18.82
2018-11-20T16:24:00.832Z,18.75
2018-11-20T16:27:08.553Z,18.95
2018-11-20T16:30:16.389Z,19.98
2018-11-20T16:33:24.137Z,17.17
2018-11-20T16:36:31.639Z,16.23
2018-11-20T16:39:39.123Z,13.10
2018-11-20T16:42:50.775Z,16.20
2018-11-20T16:45:57.239Z,16.35
2018-11-20T16:49:05.033Z,14.38
2018-11-20T16:52:14.431Z,16.60
2018-11-20T16:55:22.609Z,17.95
2018-11-20T16:58:30.362Z,16.40
2018-11-20T17:01:37.973Z,15.65
2018-11-20T17:04:45.563Z,15.53
2018-11-20T17:07:56.178Z,12.90
2018-11-20T17:11:00.880Z,15.70
2018-11-20T17:14:08.926Z,12.88
2018-11-20T17:16:58.550Z,13.93
2018-11-20T17:20:01.062Z,15.50
2018-11-20T17:23:08.765Z,15.10
2018-11-20T17:26:19.235Z,16.00
2018-11-20T17:29:26.866Z,16.30
2018-11-20T17:32:34.385Z,14.55
2018-11-20T17:35:41.963Z,16.97
2018-11-20T17:38:30.969Z,15.58
2018-11-20T17:41:38.562Z,14.58
2018-11-20T17:44:46.154Z,16.17
2018-11-20T17:47:35.941Z,16.52
2018-11-20T17:50:26.546Z,15.38
2018-11-20T17:56:29.721Z,16.27
2018-11-20T17:59:43.364Z,15.40
2018-11-20T18:02:51.724Z,15.95
2018-11-20T18:05:40.622Z,15.53
2018-11-20T18:08:29.380Z,16.27
2018-11-20T18:11:18.446Z,17.62
2018-11-20T18:14:07.395Z,16.35
2018-11-20T18:16:56.486Z,17.95
2018-11-20T18:22:56.957Z,15.58
2018-11-20T18:26:07.847Z,18.20
2018-11-20T18:29:19.910Z,16.82
2018-11-20T18:35:04.513Z,18.67
2018-11-20T18:37:53.779Z,17.60
2018-11-20T18:41:04.581Z,20.27
2018-11-20T18:43:54.006Z,18.20
2018-11-20T18:46:42.804Z,18.75
2018-11-20T18:49:50.514Z,18.45
2018-11-20T18:52:39.857Z,20.62
2018-11-20T18:55:50.452Z,20.02
2018-11-20T19:01:52.347Z,20.08
2018-11-20T19:04:41.698Z,19.55
2018-11-20T19:13:29.479Z,19.15
2018-11-20T19:16:22.394Z,19.20
2018-11-20T19:19:26.644Z,19.52
2018-11-20T19:22:17.826Z,19.30
2018-11-20T19:25:06.853Z,18.23
2018-11-20T19:28:16.534Z,19.00
2018-11-20T19:31:27.949Z,20.17
2018-11-20T19:34:17.040Z,17.32
2018-11-20T19:37:25.820Z,18.45
2018-11-20T19:40:30.819Z,17.57
2018-11-20T19:43:40.461Z,19.10
2018-11-20T19:46:49.346Z,16.93
2018-11-20T19:49:38.597Z,17.85
2018-11-20T19:52:46.634Z,20.55
2018-11-20T19:55:56.838Z,17.12
2018-11-20T20:02:05.112Z,20.60
2018-11-20T20:05:12.818Z,18.90
2018-11-20T20:08:20.441Z,18.15
2018-11-20T20:11:13.080Z,20.70
2018-11-20T20:14:01.401Z,20.48
2018-11-20T20:16:50.042Z,22.58
2018-11-20T20:19:58.015Z,18.35
2018-11-20T20:22:58.441Z,22.10
2018-11-20T20:26:53.409Z,18.60
2018-11-20T20:32:19.756Z,19.87
2018-11-20T20:38:02.626Z,22.15
2018-11-20T20:41:05.507Z,19.35
2018-11-20T20:44:09.106Z,21.65
2018-11-20T20:49:39.847Z,20.15
2018-11-20T20:52:40.434Z,20.37
2018-11-20T20:55:21.719Z,22.62
2018-11-20T20:58:13.498Z,21.82
2018-11-20T21:00:54.840Z,23.52
2018-11-20T21:03:55.059Z,22.22
2018-11-20T21:06:42.853Z,20.82
2018-11-20T21:09:50.457Z,23.18
2018-11-20T21:13:03.308Z,21.27
2018-11-20T21:15:49.504Z,22.52
2018-11-20T21:18:40.304Z,22.15
2018-11-20T21:21:27.847Z,21.37
2018-11-20T21:24:14.411Z,21.20
2018-11-20T21:27:07.667Z,19.30
2018-11-20T21:30:08.007Z,22.40
2018-11-20T21:32:53.897Z,21.57
2018-11-20T21:36:01.968Z,21.73
2018-11-20T21:38:47.567Z,19.40
2018-11-20T21:41:45.432Z,23.22
2018-11-20T21:44:33.217Z,19.92
2018-11-20T21:47:36.204Z,22.25
2018-11-20T21:50:24.966Z,22.35
2018-11-20T21:53:31.218Z,19.40
2018-11-20T21:56:31.036Z,21.73
2018-11-20T21:59:15.634Z,20.15
2018-11-20T22:02:05.363Z,23.18
2018-11-20T22:04:54.828Z,22.15
2018-11-20T22:07:34.595Z,20.92
2018-11-20T22:10:21.539Z,22.07
2018-11-20T22:13:10.476Z,23.30
2018-11-20T22:16:06.306Z,21.80
2018-11-20T22:18:50.351Z,21.82
2018-11-20T22:21:46.825Z,22.32
2018-11-20T22:24:32.645Z,24.52
2018-11-20T22:27:23.552Z,20.85
2018-11-20T22:30:14.538Z,21.93
2018-11-20T22:33:14.487Z,21.02
2018-11-20T22:36:08.008Z,20.55
2018-11-20T22:38:54.779Z,22.90
2018-11-20T22:41:51.690Z,22.35
2018-11-20T22:44:58.270Z,20.77
2018-11-20T22:47:58.544Z,23.52
2018-11-20T22:50:37.246Z,22.50
2018-11-20T22:53:17.670Z,24.10
2018-11-20T22:56:04.259Z,22.85
2018-11-20T22:58:51.064Z,23.00
2018-11-20T23:01:50.661Z,25.60
2018-11-20T23:04:37.612Z,23.47
2018-11-20T23:07:24.142Z,21.82
2018-11-20T23:09:53.293Z,24.20
2018-11-20T23:12:22.266Z,26.27
2018-11-20T23:14:51.144Z,22.93
2018-11-20T23:17:20.198Z,24.75
2018-11-20T23:19:52.448Z,22.77
2018-11-20T23:22:21.454Z,24.95
2018-11-20T23:24:53.030Z,24.75
2018-11-20T23:27:22.715Z,24.55
2018-11-20T23:29:51.978Z,23.15
2018-11-20T23:32:21.123Z,25.40
2018-11-20T23:34:49.963Z,25.72
2018-11-20T23:37:18.869Z,24.02
2018-11-20T23:39:47.791Z,22.73
2018-11-20T23:42:16.962Z,23.10
2018-11-20T23:44:46.213Z,23.47
2018-11-20T23:47:14.887Z,22.73
2018-11-20T23:49:43.532Z,22.17
2018-11-20T23:52:12.509Z,23.25
2018-11-20T23:54:41.234Z,26.65
2018-11-20T23:57:10.032Z,25.25
2018-11-20T23:59:38.640Z,25.75
